sensor_id;sensor_type;location;lat;lon;timestamp;temperature;humidity
7362;DHT22;3721;44.490;11.220;2023-02-02T00:00:47;6.80;91.50
7362;DHT22;3721;44.490;11.220;2023-02-02T00:03:13;6.80;91.40
7362;DHT22;3721;44.490;11.220;2023-02-02T00:05:47;6.80;91.40
7362;DHT22;3721;44.490;11.220;2023-02-02T00:08:23;6.80;91.40
7362;DHT22;3721;44.490;11.220;2023-02-02T00:10:49;6.80;91.40
7362;DHT22;3721;44.490;11.220;2023-02-02T00:13:15;6.80;91.20
7362;DHT22;3721;44.490;11.220;2023-02-02T00:15:41;6.70;91.10
7362;DHT22;3721;44.490;11.220;2023-02-02T00:18:06;6.70;91.30
7362;DHT22;3721;44.490;11.220;2023-02-02T00:20:32;6.70;91.30
7362;DHT22;3721;44.490;11.220;2023-02-02T00:22:59;6.70;91.10
7362;DHT22;3721;44.490;11.220;2023-02-02T00:25:25;6.70;91.00
7362;DHT22;3721;44.490;11.220;2023-02-02T00:27:51;6.60;90.70
7362;DHT22;3721;44.490;11.220;2023-02-02T00:30:16;6.50;90.70
7362;DHT22;3721;44.490;11.220;2023-02-02T00:32:42;6.40;90.90
7362;DHT22;3721;44.490;11.220;2023-02-02T00:35:08;6.40;91.00
7362;DHT22;3721;44.490;11.220;2023-02-02T00:37:34;6.40;91.00
7362;DHT22;3721;44.490;11.220;2023-02-02T00:40:00;6.30;91.00
7362;DHT22;3721;44.490;11.220;2023-02-02T00:42:25;6.30;90.90
7362;DHT22;3721;44.490;11.220;2023-02-02T00:44:51;6.20;91.00
7362;DHT22;3721;44.490;11.220;2023-02-02T00:47:35;6.20;91.00
7362;DHT22;3721;44.490;11.220;2023-02-02T00:50:01;6.20;91.00
7362;DHT22;3721;44.490;11.220;2023-02-02T00:52:27;6.20;91.00
7362;DHT22;3721;44.490;11.220;2023-02-02T00:54:53;6.20;91.00
7362;DHT22;3721;44.490;11.220;2023-02-02T00:57:18;6.20;90.80
7362;DHT22;3721;44.490;11.220;2023-02-02T00:59:44;6.10;90.80
7362;DHT22;3721;44.490;11.220;2023-02-02T01:02:10;6.10;90.80
7362;DHT22;3721;44.490;11.220;2023-02-02T01:04:36;6.10;90.80
7362;DHT22;3721;44.490;11.220;2023-02-02T01:07:02;6.10;90.70
7362;DHT22;3721;44.490;11.220;2023-02-02T01:09:27;6.00;90.60
7362;DHT22;3721;44.490;11.220;2023-02-02T01:14:19;5.90;90.40
7362;DHT22;3721;44.490;11.220;2023-02-02T01:16:45;5.90;90.70
7362;DHT22;3721;44.490;11.220;2023-02-02T01:19:14;5.90;90.80
7362;DHT22;3721;44.490;11.220;2023-02-02T01:21:40;5.90;90.90
7362;DHT22;3721;44.490;11.220;2023-02-02T01:24:06;5.80;90.80
7362;DHT22;3721;44.490;11.220;2023-02-02T01:26:32;5.80;91.00
7362;DHT22;3721;44.490;11.220;2023-02-02T01:28:58;5.70;90.90
7362;DHT22;3721;44.490;11.220;2023-02-02T01:31:24;5.70;91.10
7362;DHT22;3721;44.490;11.220;2023-02-02T01:33:50;5.80;91.10
7362;DHT22;3721;44.490;11.220;2023-02-02T01:36:20;5.80;91.10
7362;DHT22;3721;44.490;11.220;2023-02-02T01:38:47;5.80;91.00
7362;DHT22;3721;44.490;11.220;2023-02-02T01:41:19;5.80;90.90
7362;DHT22;3721;44.490;11.220;2023-02-02T01:46:21;5.80;90.90
7362;DHT22;3721;44.490;11.220;2023-02-02T01:48:58;5.80;90.80
7362;DHT22;3721;44.490;11.220;2023-02-02T01:51:39;5.80;90.60
7362;DHT22;3721;44.490;11.220;2023-02-02T01:54:08;5.80;90.60
7362;DHT22;3721;44.490;11.220;2023-02-02T01:56:44;5.80;90.60
7362;DHT22;3721;44.490;11.220;2023-02-02T01:59:12;5.70;90.50
7362;DHT22;3721;44.490;11.220;2023-02-02T02:01:39;5.70;90.60
7362;DHT22;3721;44.490;11.220;2023-02-02T02:04:05;5.70;90.60
7362;DHT22;3721;44.490;11.220;2023-02-02T02:06:32;5.70;90.50
7362;DHT22;3721;44.490;11.220;2023-02-02T02:09:00;5.60;90.40
7362;DHT22;3721;44.490;11.220;2023-02-02T02:11:28;5.60;90.40
7362;DHT22;3721;44.490;11.220;2023-02-02T02:13:56;5.50;90.30
7362;DHT22;3721;44.490;11.220;2023-02-02T02:40:00;5.50;90.20
7362;DHT22;3721;44.490;11.220;2023-02-02T02:42:30;5.60;90.20
7362;DHT22;3721;44.490;11.220;2023-02-02T02:45:00;5.60;90.00
7362;DHT22;3721;44.490;11.220;2023-02-02T02:47:29;5.60;89.90
7362;DHT22;3721;44.490;11.220;2023-02-02T02:49:56;5.60;89.90
7362;DHT22;3721;44.490;11.220;2023-02-02T02:52:21;5.70;90.00
7362;DHT22;3721;44.490;11.220;2023-02-02T02:54:52;5.70;89.70
7362;DHT22;3721;44.490;11.220;2023-02-02T03:09:14;5.60;89.00
7362;DHT22;3721;44.490;11.220;2023-02-02T03:11:20;5.60;89.00
7362;DHT22;3721;44.490;11.220;2023-02-02T03:13:47;5.60;88.70
7362;DHT22;3721;44.490;11.220;2023-02-02T03:16:14;5.50;88.70
7362;DHT22;3721;44.490;11.220;2023-02-02T03:18:40;5.60;88.70
7362;DHT22;3721;44.490;11.220;2023-02-02T03:21:06;5.50;88.20
7362;DHT22;3721;44.490;11.220;2023-02-02T03:23:32;5.40;88.20
7362;DHT22;3721;44.490;11.220;2023-02-02T03:25:58;5.40;88.40
7362;DHT22;3721;44.490;11.220;2023-02-02T03:28:24;5.30;88.50
7362;DHT22;3721;44.490;11.220;2023-02-02T03:30:51;5.30;88.90
7362;DHT22;3721;44.490;11.220;2023-02-02T03:33:17;5.20;88.60
7362;DHT22;3721;44.490;11.220;2023-02-02T03:35:44;5.20;88.90
7362;DHT22;3721;44.490;11.220;2023-02-02T03:38:09;5.20;88.80
7362;DHT22;3721;44.490;11.220;2023-02-02T03:40:37;5.10;89.00
7362;DHT22;3721;44.490;11.220;2023-02-02T03:43:03;5.10;88.80
7362;DHT22;3721;44.490;11.220;2023-02-02T03:45:29;5.00;88.90
7362;DHT22;3721;44.490;11.220;2023-02-02T03:47:56;5.00;89.10
7362;DHT22;3721;44.490;11.220;2023-02-02T03:50:22;4.90;89.20
7362;DHT22;3721;44.490;11.220;2023-02-02T03:55:17;4.90;89.30
7362;DHT22;3721;44.490;11.220;2023-02-02T03:57:42;4.80;89.10
7362;DHT22;3721;44.490;11.220;2023-02-02T04:00:09;4.80;89.50
7362;DHT22;3721;44.490;11.220;2023-02-02T04:02:34;4.80;89.70
7362;DHT22;3721;44.490;11.220;2023-02-02T04:05:00;4.70;89.70
7362;DHT22;3721;44.490;11.220;2023-02-02T04:07:26;4.70;89.60
7362;DHT22;3721;44.490;11.220;2023-02-02T04:09:51;4.70;89.30
7362;DHT22;3721;44.490;11.220;2023-02-02T04:12:17;4.60;89.30
7362;DHT22;3721;44.490;11.220;2023-02-02T04:14:42;4.50;89.20
7362;DHT22;3721;44.490;11.220;2023-02-02T04:17:08;4.50;89.30
7362;DHT22;3721;44.490;11.220;2023-02-02T04:19:34;4.40;89.20
7362;DHT22;3721;44.490;11.220;2023-02-02T04:21:59;4.40;89.40
7362;DHT22;3721;44.490;11.220;2023-02-02T07:33:02;4.40;89.70
7362;DHT22;3721;44.490;11.220;2023-02-02T07:35:28;6.70;79.20
7362;DHT22;3721;44.490;11.220;2023-02-02T07:37:54;6.80;78.70
7362;DHT22;3721;44.490;11.220;2023-02-02T07:40:20;6.80;79.40
7362;DHT22;3721;44.490;11.220;2023-02-02T07:42:47;6.70;79.30
7362;DHT22;3721;44.490;11.220;2023-02-02T07:45:13;6.70;80.30
7362;DHT22;3721;44.490;11.220;2023-02-02T07:47:39;6.60;80.30
7362;DHT22;3721;44.490;11.220;2023-02-02T08:31:36;6.70;80.60
7362;DHT22;3721;44.490;11.220;2023-02-02T09:05:56;7.40;83.60
7362;DHT22;3721;44.490;11.220;2023-02-02T09:08:22;8.50;83.10
7362;DHT22;3721;44.490;11.220;2023-02-02T09:10:47;8.60;83.10
7362;DHT22;3721;44.490;11.220;2023-02-02T09:13:13;8.70;82.90
7362;DHT22;3721;44.490;11.220;2023-02-02T09:15:39;8.80;83.20
7362;DHT22;3721;44.490;11.220;2023-02-02T09:18:04;8.90;83.70
7362;DHT22;3721;44.490;11.220;2023-02-02T09:20:30;8.90;83.90
7362;DHT22;3721;44.490;11.220;2023-02-02T09:22:56;9.00;84.30
7362;DHT22;3721;44.490;11.220;2023-02-02T09:25:23;9.10;84.60
7362;DHT22;3721;44.490;11.220;2023-02-02T09:27:49;9.10;84.30
7362;DHT22;3721;44.490;11.220;2023-02-02T09:30:16;9.20;83.80
7362;DHT22;3721;44.490;11.220;2023-02-02T09:32:41;9.20;84.20
7362;DHT22;3721;44.490;11.220;2023-02-02T09:35:07;9.30;84.60
7362;DHT22;3721;44.490;11.220;2023-02-02T09:37:33;9.30;84.80
7362;DHT22;3721;44.490;11.220;2023-02-02T09:39:59;9.40;85.10
7362;DHT22;3721;44.490;11.220;2023-02-02T09:52:29;9.40;84.90
7362;DHT22;3721;44.490;11.220;2023-02-02T09:55:05;9.70;84.70
7362;DHT22;3721;44.490;11.220;2023-02-02T09:57:40;9.70;84.70
7362;DHT22;3721;44.490;11.220;2023-02-02T10:00:36;9.70;84.70
7362;DHT22;3721;44.490;11.220;2023-02-02T10:06:10;9.80;84.60
7362;DHT22;3721;44.490;11.220;2023-02-02T10:08:44;9.80;84.60
7362;DHT22;3721;44.490;11.220;2023-02-02T10:11:31;9.80;84.70
7362;DHT22;3721;44.490;11.220;2023-02-02T10:16:35;9.90;84.40
7362;DHT22;3721;44.490;11.220;2023-02-02T11:02:55;10.10;84.10
7362;DHT22;3721;44.490;11.220;2023-02-02T11:05:26;12.40;66.50
7362;DHT22;3721;44.490;11.220;2023-02-02T11:08:33;12.40;65.70
7362;DHT22;3721;44.490;11.220;2023-02-02T11:11:11;12.40;65.30
7362;DHT22;3721;44.490;11.220;2023-02-02T11:13:44;12.40;63.30
7362;DHT22;3721;44.490;11.220;2023-02-02T11:48:34;12.40;63.20
7362;DHT22;3721;44.490;11.220;2023-02-02T11:51:01;12.90;59.20
7362;DHT22;3721;44.490;11.220;2023-02-02T11:53:29;13.00;59.00
7362;DHT22;3721;44.490;11.220;2023-02-02T11:55:57;13.00;58.70
7362;DHT22;3721;44.490;11.220;2023-02-02T11:58:27;13.00;58.60
7362;DHT22;3721;44.490;11.220;2023-02-02T12:00:55;13.00;58.10
7362;DHT22;3721;44.490;11.220;2023-02-02T12:05:49;13.00;82.80
7362;DHT22;3721;44.490;11.220;2023-02-02T12:08:14;13.10;78.70
7362;DHT22;3721;44.490;11.220;2023-02-02T12:11:00;13.10;81.30
7362;DHT22;3721;44.490;11.220;2023-02-02T12:28:12;13.40;55.60
7362;DHT22;3721;44.490;11.220;2023-02-02T12:31:07;13.40;55.50
7362;DHT22;3721;44.490;11.220;2023-02-02T14:34:29;14.80;49.60
7362;DHT22;3721;44.490;11.220;2023-02-02T14:37:16;14.80;50.00
7362;DHT22;3721;44.490;11.220;2023-02-02T14:45:28;14.80;50.20
7362;DHT22;3721;44.490;11.220;2023-02-02T14:47:58;14.70;50.40
7362;DHT22;3721;44.490;11.220;2023-02-02T14:53:33;14.50;50.20
7362;DHT22;3721;44.490;11.220;2023-02-02T14:56:09;14.50;50.20
7362;DHT22;3721;44.490;11.220;2023-02-02T15:06:36;14.40;50.40
7362;DHT22;3721;44.490;11.220;2023-02-02T15:17:38;14.50;50.80
7362;DHT22;3721;44.490;11.220;2023-02-02T15:20:19;14.50;50.90
7362;DHT22;3721;44.490;11.220;2023-02-02T15:33:57;14.40;51.10
7362;DHT22;3721;44.490;11.220;2023-02-02T15:36:43;14.30;51.20
7362;DHT22;3721;44.490;11.220;2023-02-02T15:39:21;14.30;51.30
7362;DHT22;3721;44.490;11.220;2023-02-02T15:41:51;14.20;51.40
7362;DHT22;3721;44.490;11.220;2023-02-02T15:44:36;14.20;51.50
7362;DHT22;3721;44.490;11.220;2023-02-02T15:47:38;14.20;51.60
7362;DHT22;3721;44.490;11.220;2023-02-02T15:49:56;14.20;51.60
7362;DHT22;3721;44.490;11.220;2023-02-02T15:52:30;14.20;51.70
7362;DHT22;3721;44.490;11.220;2023-02-02T15:55:22;14.20;51.70
7362;DHT22;3721;44.490;11.220;2023-02-02T15:57:48;14.20;52.10
7362;DHT22;3721;44.490;11.220;2023-02-02T16:07:54;14.00;53.20
7362;DHT22;3721;44.490;11.220;2023-02-02T16:10:20;13.90;53.30
7362;DHT22;3721;44.490;11.220;2023-02-02T16:20:30;13.60;54.70
7362;DHT22;3721;44.490;11.220;2023-02-02T16:35:45;13.50;55.00
7362;DHT22;3721;44.490;11.220;2023-02-02T16:40:43;12.70;58.00
7362;DHT22;3721;44.490;11.220;2023-02-02T16:43:27;12.70;58.10
7362;DHT22;3721;44.490;11.220;2023-02-02T16:51:02;12.50;59.10
7362;DHT22;3721;44.490;11.220;2023-02-02T16:53:29;12.40;59.10
7362;DHT22;3721;44.490;11.220;2023-02-02T16:55:55;12.30;59.10
7362;DHT22;3721;44.490;11.220;2023-02-02T16:58:25;12.30;59.00
7362;DHT22;3721;44.490;11.220;2023-02-02T17:01:10;12.20;59.00
7362;DHT22;3721;44.490;11.220;2023-02-02T17:03:39;12.20;59.30
7362;DHT22;3721;44.490;11.220;2023-02-02T17:06:06;12.10;59.30
7362;DHT22;3721;44.490;11.220;2023-02-02T17:08:37;12.00;59.40
7362;DHT22;3721;44.490;11.220;2023-02-02T17:11:23;12.00;59.40
7362;DHT22;3721;44.490;11.220;2023-02-02T17:13:51;11.90;59.70
7362;DHT22;3721;44.490;11.220;2023-02-02T17:16:20;11.80;59.90
7362;DHT22;3721;44.490;11.220;2023-02-02T17:18:46;11.80;60.30
7362;DHT22;3721;44.490;11.220;2023-02-02T17:21:14;11.70;60.50
7362;DHT22;3721;44.490;11.220;2023-02-02T17:23:42;11.70;60.80
7362;DHT22;3721;44.490;11.220;2023-02-02T17:26:09;11.60;61.00
7362;DHT22;3721;44.490;11.220;2023-02-02T17:28:39;11.50;61.20
7362;DHT22;3721;44.490;11.220;2023-02-02T17:31:14;11.50;61.20
7362;DHT22;3721;44.490;11.220;2023-02-02T17:33:40;11.40;61.00
7362;DHT22;3721;44.490;11.220;2023-02-02T17:36:08;11.30;61.20
7362;DHT22;3721;44.490;11.220;2023-02-02T17:38:35;11.30;61.90
7362;DHT22;3721;44.490;11.220;2023-02-02T17:41:01;11.20;61.00
7362;DHT22;3721;44.490;11.220;2023-02-02T17:43:28;11.20;60.90
7362;DHT22;3721;44.490;11.220;2023-02-02T17:45:54;11.20;60.90
7362;DHT22;3721;44.490;11.220;2023-02-02T17:48:20;11.20;60.70
7362;DHT22;3721;44.490;11.220;2023-02-02T17:50:46;11.20;60.60
7362;DHT22;3721;44.490;11.220;2023-02-02T17:53:17;11.20;60.90
7362;DHT22;3721;44.490;11.220;2023-02-02T17:55:44;11.10;61.00
7362;DHT22;3721;44.490;11.220;2023-02-02T17:58:11;11.20;61.30
7362;DHT22;3721;44.490;11.220;2023-02-02T18:00:39;11.10;61.40
7362;DHT22;3721;44.490;11.220;2023-02-02T18:25:24;11.10;61.30
7362;DHT22;3721;44.490;11.220;2023-02-02T18:30:17;10.70;61.60
7362;DHT22;3721;44.490;11.220;2023-02-02T18:32:42;10.60;61.20
7362;DHT22;3721;44.490;11.220;2023-02-02T18:35:10;10.60;61.90
7362;DHT22;3721;44.490;11.220;2023-02-02T18:37:36;10.50;62.10
7362;DHT22;3721;44.490;11.220;2023-02-02T18:40:03;10.50;62.20
7362;DHT22;3721;44.490;11.220;2023-02-02T18:42:29;10.40;62.10
7362;DHT22;3721;44.490;11.220;2023-02-02T18:44:58;10.40;62.30
7362;DHT22;3721;44.490;11.220;2023-02-02T18:47:24;10.30;62.10
7362;DHT22;3721;44.490;11.220;2023-02-02T18:49:50;10.30;62.30
7362;DHT22;3721;44.490;11.220;2023-02-02T18:52:16;10.30;62.90
7362;DHT22;3721;44.490;11.220;2023-02-02T18:54:43;10.20;62.60
7362;DHT22;3721;44.490;11.220;2023-02-02T19:12:37;10.20;62.70
7362;DHT22;3721;44.490;11.220;2023-02-02T19:15:09;10.00;62.90
7362;DHT22;3721;44.490;11.220;2023-02-02T19:17:37;10.00;62.50
7362;DHT22;3721;44.490;11.220;2023-02-02T19:20:16;10.00;62.90
7362;DHT22;3721;44.490;11.220;2023-02-02T19:22:43;9.90;63.80
7362;DHT22;3721;44.490;11.220;2023-02-02T19:25:10;9.90;63.90
7362;DHT22;3721;44.490;11.220;2023-02-02T19:27:37;9.80;64.00
7362;DHT22;3721;44.490;11.220;2023-02-02T19:30:11;9.80;64.30
7362;DHT22;3721;44.490;11.220;2023-02-02T19:32:41;9.80;64.10
7362;DHT22;3721;44.490;11.220;2023-02-02T19:37:40;9.70;64.30
7362;DHT22;3721;44.490;11.220;2023-02-02T19:42:42;9.50;64.60
7362;DHT22;3721;44.490;11.220;2023-02-02T19:47:55;9.30;64.90
7362;DHT22;3721;44.490;11.220;2023-02-02T19:50:24;9.30;65.30
7362;DHT22;3721;44.490;11.220;2023-02-02T19:52:51;9.20;65.30
7362;DHT22;3721;44.490;11.220;2023-02-02T19:55:24;9.20;65.60
7362;DHT22;3721;44.490;11.220;2023-02-02T19:57:51;9.10;65.90
7362;DHT22;3721;44.490;11.220;2023-02-02T20:00:26;9.10;66.00
7362;DHT22;3721;44.490;11.220;2023-02-02T20:02:59;9.00;66.80
7362;DHT22;3721;44.490;11.220;2023-02-02T20:05:39;9.00;66.10
7362;DHT22;3721;44.490;11.220;2023-02-02T20:10:43;8.90;66.40
7362;DHT22;3721;44.490;11.220;2023-02-02T20:13:28;8.90;66.50
7362;DHT22;3721;44.490;11.220;2023-02-02T20:15:58;8.90;66.50
7362;DHT22;3721;44.490;11.220;2023-02-02T20:18:41;8.80;66.30
7362;DHT22;3721;44.490;11.220;2023-02-02T20:21:40;8.70;66.10
7362;DHT22;3721;44.490;11.220;2023-02-02T20:24:21;8.70;66.30
7362;DHT22;3721;44.490;11.220;2023-02-02T20:26:47;8.70;66.40
7362;DHT22;3721;44.490;11.220;2023-02-02T20:41:41;8.70;66.50
7362;DHT22;3721;44.490;11.220;2023-02-02T20:44:10;8.60;67.10
7362;DHT22;3721;44.490;11.220;2023-02-02T20:46:36;8.60;66.70
7362;DHT22;3721;44.490;11.220;2023-02-02T20:49:02;8.50;66.50
7362;DHT22;3721;44.490;11.220;2023-02-02T20:51:27;8.30;66.70
7362;DHT22;3721;44.490;11.220;2023-02-02T20:53:54;8.30;66.90
7362;DHT22;3721;44.490;11.220;2023-02-02T20:56:23;8.20;67.00
7362;DHT22;3721;44.490;11.220;2023-02-02T20:58:49;8.20;67.70
7362;DHT22;3721;44.490;11.220;2023-02-02T21:08:33;8.20;67.70
7362;DHT22;3721;44.490;11.220;2023-02-02T21:10:59;8.10;67.60
7362;DHT22;3721;44.490;11.220;2023-02-02T21:13:24;8.00;67.60
7362;DHT22;3721;44.490;11.220;2023-02-02T21:15:50;8.00;68.00
7362;DHT22;3721;44.490;11.220;2023-02-02T21:18:16;7.90;68.10
7362;DHT22;3721;44.490;11.220;2023-02-02T21:20:41;7.90;68.20
7362;DHT22;3721;44.490;11.220;2023-02-02T21:23:07;7.80;68.50
7362;DHT22;3721;44.490;11.220;2023-02-02T21:25:34;7.80;68.70
7362;DHT22;3721;44.490;11.220;2023-02-02T21:28:00;7.80;68.80
7362;DHT22;3721;44.490;11.220;2023-02-02T21:30:26;7.80;69.20
7362;DHT22;3721;44.490;11.220;2023-02-02T21:32:52;7.80;68.90
7362;DHT22;3721;44.490;11.220;2023-02-02T21:35:17;7.70;68.80
7362;DHT22;3721;44.490;11.220;2023-02-02T21:37:43;7.70;69.00
7362;DHT22;3721;44.490;11.220;2023-02-02T21:40:13;7.70;69.50
7362;DHT22;3721;44.490;11.220;2023-02-02T21:43:00;7.60;69.80
7362;DHT22;3721;44.490;11.220;2023-02-02T21:48:50;7.60;70.00
7362;DHT22;3721;44.490;11.220;2023-02-02T21:51:24;7.60;70.30
7362;DHT22;3721;44.490;11.220;2023-02-02T21:54:36;7.60;70.70
7362;DHT22;3721;44.490;11.220;2023-02-02T21:57:40;7.60;70.80
7362;DHT22;3721;44.490;11.220;2023-02-02T22:02:52;7.60;71.10
7362;DHT22;3721;44.490;11.220;2023-02-02T22:05:21;7.60;71.10
7362;DHT22;3721;44.490;11.220;2023-02-02T22:07:52;7.50;70.80
7362;DHT22;3721;44.490;11.220;2023-02-02T22:10:34;7.50;70.70
7362;DHT22;3721;44.490;11.220;2023-02-02T22:13:17;7.50;70.80
7362;DHT22;3721;44.490;11.220;2023-02-02T22:15:45;7.50;71.10
7362;DHT22;3721;44.490;11.220;2023-02-02T22:18:19;7.50;71.20
7362;DHT22;3721;44.490;11.220;2023-02-02T22:20:48;7.60;71.50
7362;DHT22;3721;44.490;11.220;2023-02-02T22:23:20;7.60;72.10
7362;DHT22;3721;44.490;11.220;2023-02-02T22:25:58;7.70;71.30
7362;DHT22;3721;44.490;11.220;2023-02-02T22:28:32;7.70;70.90
7362;DHT22;3721;44.490;11.220;2023-02-02T22:31:01;7.80;70.80
7362;DHT22;3721;44.490;11.220;2023-02-02T22:33:30;7.90;70.90
7362;DHT22;3721;44.490;11.220;2023-02-02T22:36:07;7.90;70.90
7362;DHT22;3721;44.490;11.220;2023-02-02T22:38:41;8.00;70.60
7362;DHT22;3721;44.490;11.220;2023-02-02T22:41:09;8.00;70.10
7362;DHT22;3721;44.490;11.220;2023-02-02T22:43:38;8.00;70.20
7362;DHT22;3721;44.490;11.220;2023-02-02T22:46:15;8.00;70.20
7362;DHT22;3721;44.490;11.220;2023-02-02T22:48:47;8.00;70.20
7362;DHT22;3721;44.490;11.220;2023-02-02T22:51:37;8.00;70.30
7362;DHT22;3721;44.490;11.220;2023-02-02T22:54:21;8.00;70.30
7362;DHT22;3721;44.490;11.220;2023-02-02T22:57:13;8.10;70.50
7362;DHT22;3721;44.490;11.220;2023-02-02T23:00:36;8.10;70.40
7362;DHT22;3721;44.490;11.220;2023-02-02T23:03:26;8.10;70.30
7362;DHT22;3721;44.490;11.220;2023-02-02T23:06:22;8.10;70.10
7362;DHT22;3721;44.490;11.220;2023-02-02T23:09:05;8.20;70.20
7362;DHT22;3721;44.490;11.220;2023-02-02T23:17:53;8.30;69.60
7362;DHT22;3721;44.490;11.220;2023-02-02T23:20:22;8.40;69.50
7362;DHT22;3721;44.490;11.220;2023-02-02T23:22:50;8.40;69.10
7362;DHT22;3721;44.490;11.220;2023-02-02T23:25:16;8.40;69.00
7362;DHT22;3721;44.490;11.220;2023-02-02T23:27:43;8.40;68.80
7362;DHT22;3721;44.490;11.220;2023-02-02T23:30:10;8.40;68.70
7362;DHT22;3721;44.490;11.220;2023-02-02T23:32:36;8.30;68.90
7362;DHT22;3721;44.490;11.220;2023-02-02T23:35:03;8.30;68.90
7362;DHT22;3721;44.490;11.220;2023-02-02T23:37:29;8.40;69.00
7362;DHT22;3721;44.490;11.220;2023-02-02T23:39:54;8.30;68.80
7362;DHT22;3721;44.490;11.220;2023-02-02T23:42:20;8.20;68.70
7362;DHT22;3721;44.490;11.220;2023-02-02T23:44:46;8.00;68.80
7362;DHT22;3721;44.490;11.220;2023-02-02T23:47:12;7.90;69.20
7362;DHT22;3721;44.490;11.220;2023-02-02T23:49:38;7.90;69.60
7362;DHT22;3721;44.490;11.220;2023-02-02T23:52:04;7.80;69.50
